sensor_id;sensor_type;location;lat;lon;timestamp;pressure;altitude;pressure_sealevel;temperature;humidity
5574;BME280;2563;52.242;7.956;2023-01-28T00:01:06;99872.41;;;0.92;100.00
5574;BME280;2563;52.242;7.956;2023-01-28T00:03:32;99876.59;;;0.93;100.00
5574;BME280;2563;52.242;7.956;2023-01-28T00:06:06;99877.47;;;0.89;100.00
5574;BME280;2563;52.242;7.956;2023-01-28T00:08:32;99877.44;;;0.88;100.00
5574;BME280;2563;52.242;7.956;2023-01-28T00:10:59;99886.72;;;0.89;100.00
5574;BME280;2563;52.242;7.956;2023-01-28T00:13:25;99884.22;;;0.90;100.00
5574;BME280;2563;52.242;7.956;2023-01-28T00:16:09;99893.50;;;0.90;100.00
5574;BME280;2563;52.242;7.956;2023-01-28T00:18:35;99890.94;;;0.88;100.00
5574;BME280;2563;52.242;7.956;2023-01-28T00:21:05;99890.09;;;0.86;100.00
5574;BME280;2563;52.242;7.956;2023-01-28T00:23:33;99903.63;;;0.88;100.00
5574;BME280;2563;52.242;7.956;2023-01-28T00:26:00;99902.75;;;0.86;100.00
5574;BME280;2563;52.242;7.956;2023-01-28T00:28:25;99917.97;;;0.84;100.00
5574;BME280;2563;52.242;7.956;2023-01-28T00:30:51;99928.09;;;0.83;100.00
5574;BME280;2563;52.242;7.956;2023-01-28T00:33:16;99931.47;;;0.82;100.00
5574;BME280;2563;52.242;7.956;2023-01-28T00:35:42;99935.69;;;0.81;100.00
5574;BME280;2563;52.242;7.956;2023-01-28T00:38:07;99944.13;;;0.82;100.00
5574;BME280;2563;52.242;7.956;2023-01-28T00:40:33;99944.94;;;0.78;100.00
5574;BME280;2563;52.242;7.956;2023-01-28T00:42:58;99952.53;;;0.76;100.00
5574;BME280;2563;52.242;7.956;2023-01-28T00:45:24;99948.31;;;0.77;100.00
5574;BME280;2563;52.242;7.956;2023-01-28T00:47:49;99953.41;;;0.77;100.00
5574;BME280;2563;52.242;7.956;2023-01-28T00:50:15;99950.00;;;0.75;100.00
5574;BME280;2563;52.242;7.956;2023-01-28T00:52:40;99965.19;;;0.75;100.00
5574;BME280;2563;52.242;7.956;2023-01-28T00:55:06;99960.94;;;0.74;100.00
5574;BME280;2563;52.242;7.956;2023-01-28T00:57:32;99968.53;;;0.74;100.00
5574;BME280;2563;52.242;7.956;2023-01-28T00:59:58;99974.44;;;0.71;100.00
5574;BME280;2563;52.242;7.956;2023-01-28T01:02:23;99975.28;;;0.72;100.00
5574;BME280;2563;52.242;7.956;2023-01-28T01:04:49;99977.81;;;0.70;100.00
5574;BME280;2563;52.242;7.956;2023-01-28T01:07:25;99983.72;;;0.71;100.00
5574;BME280;2563;52.242;7.956;2023-01-28T01:10:03;99983.72;;;0.71;100.00
5574;BME280;2563;52.242;7.956;2023-01-28T01:12:28;99989.63;;;0.71;100.00
5574;BME280;2563;52.242;7.956;2023-01-28T01:14:55;99984.59;;;0.70;100.00
5574;BME280;2563;52.242;7.956;2023-01-28T01:17:21;99987.94;;;0.69;100.00
5574;BME280;2563;52.242;7.956;2023-01-28T01:19:46;99989.59;;;0.67;100.00
5574;BME280;2563;52.242;7.956;2023-01-28T01:22:12;99999.72;;;0.67;100.00
5574;BME280;2563;52.242;7.956;2023-01-28T01:24:37;99992.13;;;0.67;100.00
5574;BME280;2563;52.242;7.956;2023-01-28T01:27:02;100000.59;;;0.66;100.00
5574;BME280;2563;52.242;7.956;2023-01-28T01:29:30;99998.88;;;0.63;100.00
5574;BME280;2563;52.242;7.956;2023-01-28T01:31:55;100014.06;;;0.64;100.00
5574;BME280;2563;52.242;7.956;2023-01-28T01:34:20;100010.72;;;0.66;100.00
5574;BME280;2563;52.242;7.956;2023-01-28T01:36:46;100011.56;;;0.66;100.00
5574;BME280;2563;52.242;7.956;2023-01-28T01:39:11;100016.59;;;0.63;100.00
5574;BME280;2563;52.242;7.956;2023-01-28T01:41:37;100021.69;;;0.63;100.00
5574;BME280;2563;52.242;7.956;2023-01-28T01:44:04;100020.81;;;0.64;100.00
5574;BME280;2563;52.242;7.956;2023-01-28T01:46:48;100020.81;;;0.61;100.00
5574;BME280;2563;52.242;7.956;2023-01-28T01:49:20;100025.00;;;0.59;100.00
5574;BME280;2563;52.242;7.956;2023-01-28T01:51:53;100027.50;;;0.57;100.00
5574;BME280;2563;52.242;7.956;2023-01-28T01:54:23;100026.66;;;0.54;100.00
5574;BME280;2563;52.242;7.956;2023-01-28T01:56:50;100025.81;;;0.53;100.00
5574;BME280;2563;52.242;7.956;2023-01-28T01:59:20;100037.63;;;0.54;100.00
5574;BME280;2563;52.242;7.956;2023-01-28T02:01:48;100038.47;;;0.53;100.00
5574;BME280;2563;52.242;7.956;2023-01-28T02:04:24;100041.00;;;0.53;100.00
5574;BME280;2563;52.242;7.956;2023-01-28T02:06:51;100044.34;;;0.52;100.00
5574;BME280;2563;52.242;7.956;2023-01-28T02:09:42;100039.28;;;0.52;100.00
5574;BME280;2563;52.242;7.956;2023-01-28T02:12:11;100045.22;;;0.53;100.00
5574;BME280;2563;52.242;7.956;2023-01-28T02:14:44;100041.84;;;0.51;100.00
5574;BME280;2563;52.242;7.956;2023-01-28T02:17:12;100044.34;;;0.49;100.00
5574;BME280;2563;52.242;7.956;2023-01-28T02:19:53;100046.00;;;0.47;100.00
5574;BME280;2563;52.242;7.956;2023-01-28T02:30:53;100040.09;;;0.44;100.00
5574;BME280;2563;52.242;7.956;2023-01-28T02:33:43;100039.19;;;0.40;100.00
5574;BME280;2563;52.242;7.956;2023-01-28T02:36:23;100045.09;;;0.39;100.00
5574;BME280;2563;52.242;7.956;2023-01-28T02:38:52;100039.19;;;0.37;100.00
5574;BME280;2563;52.242;7.956;2023-01-28T02:41:24;100046.75;;;0.34;100.00
5574;BME280;2563;52.242;7.956;2023-01-28T02:43:51;100037.44;;;0.33;100.00
5574;BME280;2563;52.242;7.956;2023-01-28T02:49:10;100041.66;;;0.32;100.00
5574;BME280;2563;52.242;7.956;2023-01-28T02:55:32;100021.41;;;0.32;100.00
5574;BME280;2563;52.242;7.956;2023-01-28T03:00:49;100017.19;;;0.31;100.00
5574;BME280;2563;52.242;7.956;2023-01-28T03:03:24;100020.56;;;0.32;100.00
5574;BME280;2563;52.242;7.956;2023-01-28T03:05:54;100007.91;;;0.32;100.00
5574;BME280;2563;52.242;7.956;2023-01-28T03:08:55;100005.38;;;0.32;100.00
5574;BME280;2563;52.242;7.956;2023-01-28T03:11:43;100005.34;;;0.29;100.00
5574;BME280;2563;52.242;7.956;2023-01-28T03:14:29;100009.56;;;0.28;100.00
5574;BME280;2563;52.242;7.956;2023-01-28T03:20:08;100003.69;;;0.29;100.00
5574;BME280;2563;52.242;7.956;2023-01-28T03:22:55;100013.78;;;0.28;100.00
5574;BME280;2563;52.242;7.956;2023-01-28T03:25:43;100008.72;;;0.28;100.00
5574;BME280;2563;52.242;7.956;2023-01-28T03:28:30;99996.03;;;0.25;100.00
5574;BME280;2563;52.242;7.956;2023-01-28T03:31:17;100001.94;;;0.24;100.00
5574;BME280;2563;52.242;7.956;2023-01-28T03:34:03;99991.78;;;0.20;100.00
5574;BME280;2563;52.242;7.956;2023-01-28T03:36:48;100004.41;;;0.19;100.00
5574;BME280;2563;52.242;7.956;2023-01-28T03:39:25;99995.16;;;0.19;100.00
5574;BME280;2563;52.242;7.956;2023-01-28T03:42:07;99995.13;;;0.18;100.00
5574;BME280;2563;52.242;7.956;2023-01-28T03:44:33;99993.44;;;0.18;100.00
5574;BME280;2563;52.242;7.956;2023-01-28T03:47:18;99985.84;;;0.18;100.00
5574;BME280;2563;52.242;7.956;2023-01-28T03:49:48;99993.44;;;0.18;100.00
5574;BME280;2563;52.242;7.956;2023-01-28T03:52:16;99979.97;;;0.19;100.00
5574;BME280;2563;52.242;7.956;2023-01-28T03:54:43;99979.97;;;0.19;100.00
5574;BME280;2563;52.242;7.956;2023-01-28T03:57:08;99977.44;;;0.18;100.00
5574;BME280;2563;52.242;7.956;2023-01-28T03:59:34;99968.97;;;0.19;100.00
5574;BME280;2563;52.242;7.956;2023-01-28T04:01:59;99975.72;;;0.15;100.00
5574;BME280;2563;52.242;7.956;2023-01-28T04:04:28;99977.38;;;0.13;100.00
5574;BME280;2563;52.242;7.956;2023-01-28T04:06:54;99985.84;;;0.15;100.00
5574;BME280;2563;52.242;7.956;2023-01-28T04:09:20;99981.63;;;0.17;100.00
5574;BME280;2563;52.242;7.956;2023-01-28T04:11:47;99988.38;;;0.15;100.00
5574;BME280;2563;52.242;7.956;2023-01-28T04:14:12;99985.81;;;0.14;100.00
5574;BME280;2563;52.242;7.956;2023-01-28T04:16:40;99990.03;;;0.13;100.00
5574;BME280;2563;52.242;7.956;2023-01-28T04:19:05;100001.84;;;0.14;100.00
5574;BME280;2563;52.242;7.956;2023-01-28T04:21:31;100010.28;;;0.16;100.00
5574;BME280;2563;52.242;7.956;2023-01-28T04:23:56;100015.38;;;0.15;100.00
5574;BME280;2563;52.242;7.956;2023-01-28T04:26:21;100017.03;;;0.14;100.00
5574;BME280;2563;52.242;7.956;2023-01-28T04:28:47;100017.03;;;0.14;100.00
5574;BME280;2563;52.242;7.956;2023-01-28T04:31:12;100023.78;;;0.12;100.00
5574;BME280;2563;52.242;7.956;2023-01-28T04:33:37;100029.66;;;0.11;100.00
5574;BME280;2563;52.242;7.956;2023-01-28T04:36:03;100015.28;;;0.09;100.00
5574;BME280;2563;52.242;7.956;2023-01-28T04:38:28;100024.53;;;0.07;100.00
5574;BME280;2563;52.242;7.956;2023-01-28T04:40:54;100032.13;;;0.05;100.00
5574;BME280;2563;52.242;7.956;2023-01-28T04:43:19;100038.88;;;0.06;100.00
5574;BME280;2563;52.242;7.956;2023-01-28T04:45:48;100041.38;;;0.05;100.00
5574;BME280;2563;52.242;7.956;2023-01-28T04:48:14;100050.66;;;0.04;100.00
5574;BME280;2563;52.242;7.956;2023-01-28T04:50:41;100060.78;;;0.04;100.00
5574;BME280;2563;52.242;7.956;2023-01-28T04:53:06;100064.97;;;0.01;100.00
5574;BME280;2563;52.242;7.956;2023-01-28T04:55:32;100073.41;;;0.01;100.00
5574;BME280;2563;52.242;7.956;2023-01-28T04:57:57;100069.19;;;0.00;100.00
5574;BME280;2563;52.242;7.956;2023-01-28T05:00:23;100072.53;;;-0.01;100.00
5574;BME280;2563;52.242;7.956;2023-01-28T05:02:48;100064.06;;;-0.03;100.00
5574;BME280;2563;52.242;7.956;2023-01-28T05:05:14;100059.03;;;-0.03;100.00
5574;BME280;2563;52.242;7.956;2023-01-28T05:07:39;100059.88;;;-0.04;100.00
5574;BME280;2563;52.242;7.956;2023-01-28T05:10:05;100061.53;;;-0.03;100.00
5574;BME280;2563;52.242;7.956;2023-01-28T05:12:30;100064.91;;;-0.06;100.00
5574;BME280;2563;52.242;7.956;2023-01-28T05:14:57;100078.38;;;-0.07;100.00
5574;BME280;2563;52.242;7.956;2023-01-28T05:17:27;100086.84;;;-0.05;100.00
5574;BME280;2563;52.242;7.956;2023-01-28T05:19:53;100104.56;;;-0.03;100.00
5574;BME280;2563;52.242;7.956;2023-01-28T05:22:19;100102.03;;;-0.05;100.00
5574;BME280;2563;52.242;7.956;2023-01-28T05:24:45;100105.34;;;-0.09;100.00
5574;BME280;2563;52.242;7.956;2023-01-28T05:27:10;100109.56;;;-0.08;100.00
5574;BME280;2563;52.242;7.956;2023-01-28T05:29:36;100128.13;;;-0.07;100.00
5574;BME280;2563;52.242;7.956;2023-01-28T05:32:01;100123.91;;;-0.05;100.00
5574;BME280;2563;52.242;7.956;2023-01-28T05:34:27;100118.03;;;-0.07;100.00
5574;BME280;2563;52.242;7.956;2023-01-28T05:36:52;100111.19;;;-0.13;100.00
5574;BME280;2563;52.242;7.956;2023-01-28T05:39:17;100114.56;;;-0.12;100.00
5574;BME280;2563;52.242;7.956;2023-01-28T05:41:43;100109.50;;;-0.14;100.00
5574;BME280;2563;52.242;7.956;2023-01-28T05:44:08;100095.94;;;-0.17;100.00
5574;BME280;2563;52.242;7.956;2023-01-28T05:46:34;100102.66;;;-0.19;100.00
5574;BME280;2563;52.242;7.956;2023-01-28T05:48:59;100105.25;;;-0.16;100.00
5574;BME280;2563;52.242;7.956;2023-01-28T05:51:24;100089.22;;;-0.18;100.00
5574;BME280;2563;52.242;7.956;2023-01-28T05:53:50;100084.13;;;-0.22;100.00
5574;BME280;2563;52.242;7.956;2023-01-28T05:56:15;100084.13;;;-0.22;100.00
5574;BME280;2563;52.242;7.956;2023-01-28T05:58:40;100072.28;;;-0.23;100.00
5574;BME280;2563;52.242;7.956;2023-01-28T06:01:06;100074.00;;;-0.22;100.00
5574;BME280;2563;52.242;7.956;2023-01-28T06:03:31;100075.66;;;-0.24;100.00
5574;BME280;2563;52.242;7.956;2023-01-28T06:05:56;100070.59;;;-0.24;100.00
5574;BME280;2563;52.242;7.956;2023-01-28T06:08:22;100069.72;;;-0.24;100.00
5574;BME280;2563;52.242;7.956;2023-01-28T06:10:47;100072.25;;;-0.26;100.00
5574;BME280;2563;52.242;7.956;2023-01-28T06:13:13;100075.59;;;-0.27;100.00
5574;BME280;2563;52.242;7.956;2023-01-28T06:15:38;100084.03;;;-0.28;100.00
5574;BME280;2563;52.242;7.956;2023-01-28T06:18:03;100087.41;;;-0.29;100.00
5574;BME280;2563;52.242;7.956;2023-01-28T06:20:29;100095.81;;;-0.30;100.00
5574;BME280;2563;52.242;7.956;2023-01-28T06:22:54;100097.47;;;-0.32;100.00
5574;BME280;2563;52.242;7.956;2023-01-28T06:25:20;100105.03;;;-0.33;100.00
5574;BME280;2563;52.242;7.956;2023-01-28T06:27:45;100119.34;;;-0.34;100.00
5574;BME280;2563;52.242;7.956;2023-01-28T06:30:11;100126.13;;;-0.33;100.00
5574;BME280;2563;52.242;7.956;2023-01-28T06:32:36;100127.81;;;-0.32;100.00
5574;BME280;2563;52.242;7.956;2023-01-28T06:35:02;100121.91;;;-0.32;100.00
5574;BME280;2563;52.242;7.956;2023-01-28T06:37:28;100126.13;;;-0.33;100.00
5574;BME280;2563;52.242;7.956;2023-01-28T06:39:53;100131.97;;;-0.34;100.00
5574;BME280;2563;52.242;7.956;2023-01-28T06:42:19;100132.81;;;-0.35;100.00
5574;BME280;2563;52.242;7.956;2023-01-28T06:44:44;100131.94;;;-0.37;100.00
5574;BME280;2563;52.242;7.956;2023-01-28T06:47:09;100138.72;;;-0.36;100.00
5574;BME280;2563;52.242;7.956;2023-01-28T06:49:36;100140.38;;;-0.36;100.00
5574;BME280;2563;52.242;7.956;2023-01-28T06:52:01;100145.44;;;-0.36;100.00
5574;BME280;2563;52.242;7.956;2023-01-28T06:54:28;100150.47;;;-0.39;100.00
5574;BME280;2563;52.242;7.956;2023-01-28T06:56:54;100155.53;;;-0.39;100.00
5574;BME280;2563;52.242;7.956;2023-01-28T06:59:19;100163.94;;;-0.39;100.00
5574;BME280;2563;52.242;7.956;2023-01-28T07:01:44;100157.19;;;-0.40;100.00
5574;BME280;2563;52.242;7.956;2023-01-28T07:04:10;100164.75;;;-0.41;100.00
5574;BME280;2563;52.242;7.956;2023-01-28T07:06:35;100168.13;;;-0.41;100.00
5574;BME280;2563;52.242;7.956;2023-01-28T07:09:00;100168.13;;;-0.41;100.00
5574;BME280;2563;52.242;7.956;2023-01-28T07:11:27;100174.00;;;-0.44;100.00
5574;BME280;2563;52.242;7.956;2023-01-28T07:13:52;100174.84;;;-0.45;100.00
5574;BME280;2563;52.242;7.956;2023-01-28T07:16:17;100176.56;;;-0.42;100.00
5574;BME280;2563;52.242;7.956;2023-01-28T07:18:43;100170.63;;;-0.44;100.00
5574;BME280;2563;52.242;7.956;2023-01-28T07:21:08;100166.38;;;-0.47;100.00
5574;BME280;2563;52.242;7.956;2023-01-28T07:23:33;100175.69;;;-0.44;100.00
5574;BME280;2563;52.242;7.956;2023-01-28T07:26:03;100164.72;;;-0.45;100.00
5574;BME280;2563;52.242;7.956;2023-01-28T07:28:28;100179.03;;;-0.45;100.00
5574;BME280;2563;52.242;7.956;2023-01-28T07:30:54;100192.53;;;-0.45;100.00
5574;BME280;2563;52.242;7.956;2023-01-28T07:33:19;100200.91;;;-0.46;100.00
5574;BME280;2563;52.242;7.956;2023-01-28T07:35:45;100202.59;;;-0.46;100.00
5574;BME280;2563;52.242;7.956;2023-01-28T07:38:11;100216.91;;;-0.48;100.00
5574;BME280;2563;52.242;7.956;2023-01-28T07:40:36;100234.66;;;-0.45;100.00
5574;BME280;2563;52.242;7.956;2023-01-28T07:43:02;100243.94;;;-0.44;100.00
5574;BME280;2563;52.242;7.956;2023-01-28T07:45:28;100248.19;;;-0.41;100.00
5574;BME280;2563;52.242;7.956;2023-01-28T07:47:57;100249.06;;;-0.39;100.00
5574;BME280;2563;52.242;7.956;2023-01-28T07:50:23;100259.09;;;-0.44;100.00
5574;BME280;2563;52.242;7.956;2023-01-28T07:52:49;100264.22;;;-0.39;100.00
5574;BME280;2563;52.242;7.956;2023-01-28T07:55:14;100276.03;;;-0.40;100.00
5574;BME280;2563;52.242;7.956;2023-01-28T07:57:55;100295.50;;;-0.34;100.00
5574;BME280;2563;52.242;7.956;2023-01-28T08:00:22;100297.22;;;-0.32;100.00
5574;BME280;2563;52.242;7.956;2023-01-28T08:02:48;100296.50;;;-0.25;100.00
5574;BME280;2563;52.242;7.956;2023-01-28T08:05:19;100293.22;;;-0.17;100.00
5574;BME280;2563;52.242;7.956;2023-01-28T08:07:45;100292.53;;;-0.09;100.00
5574;BME280;2563;52.242;7.956;2023-01-28T08:10:11;100277.44;;;-0.01;100.00
5574;BME280;2563;52.242;7.956;2023-01-28T08:12:37;100275.06;;;0.08;100.00
5574;BME280;2563;52.242;7.956;2023-01-28T08:15:04;100275.13;;;0.13;100.00
5574;BME280;2563;52.242;7.956;2023-01-28T08:17:30;100303.69;;;0.07;100.00
5574;BME280;2563;52.242;7.956;2023-01-28T08:19:55;100318.03;;;0.07;100.00
5574;BME280;2563;52.242;7.956;2023-01-28T08:22:25;100314.69;;;0.09;100.00
5574;BME280;2563;52.242;7.956;2023-01-28T08:24:50;100323.13;;;0.08;100.00
5574;BME280;2563;52.242;7.956;2023-01-28T08:27:16;100352.56;;;0.03;100.00
5574;BME280;2563;52.242;7.956;2023-01-28T08:29:41;100350.81;;;-0.01;100.00
5574;BME280;2563;52.242;7.956;2023-01-28T08:32:08;100359.25;;;-0.02;100.00
5574;BME280;2563;52.242;7.956;2023-01-28T08:34:33;100371.72;;;-0.13;100.00
5574;BME280;2563;52.242;7.956;2023-01-28T08:36:58;100384.38;;;-0.11;100.00
5574;BME280;2563;52.242;7.956;2023-01-28T08:39:24;100404.63;;;-0.10;100.00
5574;BME280;2563;52.242;7.956;2023-01-28T08:41:49;100407.25;;;-0.05;100.00
5574;BME280;2563;52.242;7.956;2023-01-28T08:44:14;100422.34;;;-0.10;100.00
5574;BME280;2563;52.242;7.956;2023-01-28T08:46:40;100441.69;;;-0.13;100.00
5574;BME280;2563;52.242;7.956;2023-01-28T08:49:05;100438.41;;;-0.08;100.00
5574;BME280;2563;52.242;7.956;2023-01-28T08:51:30;100430.66;;;-0.18;100.00
5574;BME280;2563;52.242;7.956;2023-01-28T08:53:56;100423.13;;;-0.14;100.00
5574;BME280;2563;52.242;7.956;2023-01-28T08:56:22;100430.13;;;0.01;100.00
5574;BME280;2563;52.242;7.956;2023-01-28T08:58:48;100428.38;;;-0.03;100.00
5574;BME280;2563;52.242;7.956;2023-01-28T09:01:13;100436.84;;;-0.01;100.00
5574;BME280;2563;52.242;7.956;2023-01-28T09:03:38;100435.19;;;0.01;100.00
5574;BME280;2563;52.242;7.956;2023-01-28T09:06:04;100430.28;;;0.12;100.00
5574;BME280;2563;52.242;7.956;2023-01-28T09:08:30;100442.88;;;0.07;100.00
5574;BME280;2563;52.242;7.956;2023-01-28T09:10:59;100426.06;;;0.11;100.00
5574;BME280;2563;52.242;7.956;2023-01-28T09:13:24;100444.59;;;0.08;100.00
5574;BME280;2563;52.242;7.956;2023-01-28T09:15:50;100453.97;;;0.15;100.00
5574;BME280;2563;52.242;7.956;2023-01-28T09:18:16;100451.53;;;0.20;100.00
5574;BME280;2563;52.242;7.956;2023-01-28T09:20:41;100479.28;;;0.15;100.00
5574;BME280;2563;52.242;7.956;2023-01-28T09:23:07;100475.88;;;0.13;100.00
5574;BME280;2563;52.242;7.956;2023-01-28T09:25:33;100471.00;;;0.26;100.00
5574;BME280;2563;52.242;7.956;2023-01-28T09:28:00;100479.44;;;0.25;100.00
5574;BME280;2563;52.242;7.956;2023-01-28T09:30:26;100483.78;;;0.33;100.00
5574;BME280;2563;52.242;7.956;2023-01-28T09:32:53;100486.44;;;0.39;100.00
5574;BME280;2563;52.242;7.956;2023-01-28T09:35:18;100489.84;;;0.43;100.00
5574;BME280;2563;52.242;7.956;2023-01-28T09:37:44;100495.97;;;0.56;100.00
5574;BME280;2563;52.242;7.956;2023-01-28T09:45:53;100519.06;;;0.76;100.00
5574;BME280;2563;52.242;7.956;2023-01-28T09:48:21;100520.91;;;0.86;100.00
5574;BME280;2563;52.242;7.956;2023-01-28T09:50:50;100560.38;;;0.70;100.00
5574;BME280;2563;52.242;7.956;2023-01-28T09:53:23;100578.91;;;0.69;100.00
5574;BME280;2563;52.242;7.956;2023-01-28T09:56:02;100596.06;;;0.84;100.00
5574;BME280;2563;52.242;7.956;2023-01-28T09:58:28;100597.72;;;0.83;100.00
5574;BME280;2563;52.242;7.956;2023-01-28T10:01:29;100640.03;;;0.88;100.00
5574;BME280;2563;52.242;7.956;2023-01-28T10:04:12;100683.06;;;0.86;100.00
5574;BME280;2563;52.242;7.956;2023-01-28T10:06:55;100694.22;;;0.96;100.00
5574;BME280;2563;52.242;7.956;2023-01-28T10:11:59;100679.97;;;1.02;100.00
5574;BME280;2563;52.242;7.956;2023-01-28T10:17:41;100653.88;;;1.63;100.00
5574;BME280;2563;52.242;7.956;2023-01-28T10:22:42;100789.34;;;1.74;100.00
5574;BME280;2563;52.242;7.956;2023-01-28T10:25:17;100808.84;;;1.78;100.00
5574;BME280;2563;52.242;7.956;2023-01-28T10:27:44;100833.53;;;1.88;100.00
5574;BME280;2563;52.242;7.956;2023-01-28T10:30:15;100883.00;;;1.62;100.00
5574;BME280;2563;52.242;7.956;2023-01-28T10:35:31;100928.53;;;1.54;100.00
5574;BME280;2563;52.242;7.956;2023-01-28T10:38:01;100922.03;;;1.68;100.00
5574;BME280;2563;52.242;7.956;2023-01-28T10:40:31;100958.13;;;1.55;100.00
5574;BME280;2563;52.242;7.956;2023-01-28T10:42:57;100963.34;;;1.61;100.00
5574;BME280;2563;52.242;7.956;2023-01-28T10:45:27;100968.59;;;1.72;100.00
5574;BME280;2563;52.242;7.956;2023-01-28T10:48:08;100978.16;;;1.85;100.00
5574;BME280;2563;52.242;7.956;2023-01-28T10:50:37;100985.88;;;1.91;100.00
5574;BME280;2563;52.242;7.956;2023-01-28T10:53:04;101006.91;;;1.84;100.00
5574;BME280;2563;52.242;7.956;2023-01-28T10:55:55;101033.88;;;1.78;100.00
5574;BME280;2563;52.242;7.956;2023-01-28T10:58:24;101000.78;;;2.20;100.00
5574;BME280;2563;52.242;7.956;2023-01-28T11:01:04;100994.41;;;2.42;100.00
5574;BME280;2563;52.242;7.956;2023-01-28T11:03:30;101013.16;;;2.50;100.00
5574;BME280;2563;52.242;7.956;2023-01-28T11:05:57;101065.22;;;2.25;100.00
5574;BME280;2563;52.242;7.956;2023-01-28T11:08:26;101067.91;;;2.34;100.00
5574;BME280;2563;52.242;7.956;2023-01-28T11:10:53;101079.19;;;2.50;100.00
5574;BME280;2563;52.242;7.956;2023-01-28T11:13:21;101089.53;;;2.60;100.00
5574;BME280;2563;52.242;7.956;2023-01-28T11:16:04;101123.47;;;2.62;100.00
5574;BME280;2563;52.242;7.956;2023-01-28T11:18:45;101131.13;;;2.65;100.00
5574;BME280;2563;52.242;7.956;2023-01-28T11:21:20;101152.13;;;2.56;100.00
5574;BME280;2563;52.242;7.956;2023-01-28T11:23:50;101134.16;;;2.94;100.00
5574;BME280;2563;52.242;7.956;2023-01-28T11:26:20;101130.28;;;3.17;100.00
5574;BME280;2563;52.242;7.956;2023-01-28T11:28:47;101137.81;;;3.68;100.00
5574;BME280;2563;52.242;7.956;2023-01-28T11:31:16;101124.81;;;4.15;100.00
5574;BME280;2563;52.242;7.956;2023-01-28T11:33:49;101327.00;;;4.20;100.00
5574;BME280;2563;52.242;7.956;2023-01-28T11:36:18;101419.53;;;3.69;100.00
5574;BME280;2563;52.242;7.956;2023-01-28T11:41:18;101475.59;;;4.19;100.00
5574;BME280;2563;52.242;7.956;2023-01-28T11:43:52;101533.50;;;3.79;100.00
5574;BME280;2563;52.242;7.956;2023-01-28T11:46:30;101583.97;;;3.57;100.00
5574;BME280;2563;52.242;7.956;2023-01-28T12:05:15;101565.84;;;6.05;100.00
5574;BME280;2563;52.242;7.956;2023-01-28T12:16:01;101757.50;;;6.69;100.00
5574;BME280;2563;52.242;7.956;2023-01-28T12:19:08;101820.22;;;6.41;100.00
5574;BME280;2563;52.242;7.956;2023-01-28T12:21:52;101900.31;;;5.37;100.00
5574;BME280;2563;52.242;7.956;2023-01-28T12:27:33;101907.97;;;4.56;100.00
5574;BME280;2563;52.242;7.956;2023-01-28T12:41:25;101919.41;;;4.01;100.00
5574;BME280;2563;52.242;7.956;2023-01-28T12:43:59;101890.03;;;4.15;100.00
5574;BME280;2563;52.242;7.956;2023-01-28T12:49:21;101888.81;;;3.99;100.00
5574;BME280;2563;52.242;7.956;2023-01-28T12:57:34;101872.22;;;3.47;100.00
5574;BME280;2563;52.242;7.956;2023-01-28T13:00:24;101845.50;;;3.65;100.00
5574;BME280;2563;52.242;7.956;2023-01-28T13:08:33;101803.13;;;3.67;100.00
5574;BME280;2563;52.242;7.956;2023-01-28T13:11:00;101793.50;;;3.55;100.00
5574;BME280;2563;52.242;7.956;2023-01-28T13:13:36;101781.09;;;3.69;100.00
5574;BME280;2563;52.242;7.956;2023-01-28T13:16:03;101761.16;;;3.86;100.00
5574;BME280;2563;52.242;7.956;2023-01-28T13:21:05;101768.72;;;3.84;100.00
5574;BME280;2563;52.242;7.956;2023-01-28T13:23:44;101804.69;;;3.61;100.00
5574;BME280;2563;52.242;7.956;2023-01-28T13:28:46;101792.72;;;3.57;100.00
5574;BME280;2563;52.242;7.956;2023-01-28T13:31:14;101789.34;;;3.58;100.00
5574;BME280;2563;52.242;7.956;2023-01-28T13:36:38;101734.19;;;3.59;100.00
5574;BME280;2563;52.242;7.956;2023-01-28T13:41:41;101707.81;;;3.55;100.00
5574;BME280;2563;52.242;7.956;2023-01-28T13:44:29;101716.97;;;3.49;100.00
5574;BME280;2563;52.242;7.956;2023-01-28T13:46:58;101693.44;;;3.59;100.00
5574;BME280;2563;52.242;7.956;2023-01-28T13:54:35;101653.66;;;3.62;100.00
5574;BME280;2563;52.242;7.956;2023-01-28T14:13:39;101647.94;;;3.35;100.00
5574;BME280;2563;52.242;7.956;2023-01-28T14:19:11;101659.13;;;3.05;100.00
5574;BME280;2563;52.242;7.956;2023-01-28T14:21:38;101652.38;;;3.07;100.00
5574;BME280;2563;52.242;7.956;2023-01-28T14:24:03;101647.31;;;3.07;100.00
5574;BME280;2563;52.242;7.956;2023-01-28T14:31:50;101588.75;;;3.04;100.00
5574;BME280;2563;52.242;7.956;2023-01-28T14:37:04;101589.09;;;2.85;100.00
5574;BME280;2563;52.242;7.956;2023-01-28T14:39:44;101577.28;;;2.85;100.00
5574;BME280;2563;52.242;7.956;2023-01-28T14:42:20;101563.59;;;2.82;100.00
5574;BME280;2563;52.242;7.956;2023-01-28T14:44:56;101549.06;;;2.76;100.00
5574;BME280;2563;52.242;7.956;2023-01-28T14:58:36;101518.28;;;2.64;100.00
5574;BME280;2563;52.242;7.956;2023-01-28T15:01:03;101492.75;;;2.59;100.00
5574;BME280;2563;52.242;7.956;2023-01-28T15:03:29;101488.25;;;2.49;100.00
5574;BME280;2563;52.242;7.956;2023-01-28T15:08:35;101475.03;;;2.27;100.00
5574;BME280;2563;52.242;7.956;2023-01-28T15:11:01;101474.94;;;2.23;100.00
5574;BME280;2563;52.242;7.956;2023-01-28T15:13:29;101462.31;;;2.27;100.00
5574;BME280;2563;52.242;7.956;2023-01-28T15:15:57;101439.56;;;2.32;100.00
5574;BME280;2563;52.242;7.956;2023-01-28T15:18:39;101430.03;;;2.22;100.00
5574;BME280;2563;52.242;7.956;2023-01-28T15:21:06;101428.31;;;2.21;100.00
5574;BME280;2563;52.242;7.956;2023-01-28T15:23:37;101412.88;;;2.13;100.00
5574;BME280;2563;52.242;7.956;2023-01-28T15:26:14;101394.13;;;2.08;100.00
5574;BME280;2563;52.242;7.956;2023-01-28T15:28:42;101372.84;;;2.03;100.00
5574;BME280;2563;52.242;7.956;2023-01-28T15:31:29;101365.41;;;2.09;100.00
5574;BME280;2563;52.242;7.956;2023-01-28T15:34:00;101340.69;;;2.03;100.00
5574;BME280;2563;52.242;7.956;2023-01-28T15:36:26;101341.41;;;1.98;100.00
5574;BME280;2563;52.242;7.956;2023-01-28T15:38:53;101336.13;;;1.88;100.00
5574;BME280;2563;52.242;7.956;2023-01-28T15:41:31;101325.91;;;1.85;100.00
5574;BME280;2563;52.242;7.956;2023-01-28T15:43:57;101306.16;;;1.74;100.00
5574;BME280;2563;52.242;7.956;2023-01-28T15:46:22;101220.78;;;1.76;100.00
5574;BME280;2563;52.242;7.956;2023-01-28T15:49:00;101223.94;;;1.67;100.00
5574;BME280;2563;52.242;7.956;2023-01-28T15:51:28;101210.31;;;1.62;100.00